Mae Hong Son, Thailand
Current Conditions -  °F | °C
As of 12:00 PM on Sunday 23 Nov 2014 (Local Time) from VTCH Reporting Station
Few Clouds Few Clouds  
Wind Chill: 79°   Ceiling: Unl
Heat Index: 80°   Visibility: 6mi
Dew Point: 63°   Wind: 3mph
Humidity: 57%   Direction: NA
Pressure: 29.97"   Gusts: NA
Location:  19.27°N, 97.93°E
Report Text: VTCH 230500Z VRB03KT 9999 FEW028 26/17 Q1015 A2997INFO: F
Loading
Personal Weather Stations






























Interactive Weather Map New forecast layout! Learn more

10-Day Weather Forecast

Advertisements
Track Severe Weather on mobile